Texas Enterprise — KSDF — position and weather

sailwx.info

Track history (hours):
 
Tides and Currents Weather Stations Pressure Air Temp Water Temp Dewpoint Dewpoint Depression Visibility Wind Speed Wind Dir Waves Ship Positions

Texas Enterprise

Owner: U.S. United Ocean Services, LLC, Tampa, FL. More information available from US FCC via Universal Licensing System and Coast Guard Vessel Documentation Center.

Last reported at 2016-Oct-01 04:24 UTC. Time now 2016-Oct-01 08:46 UTC.
Position N 18°26' W 066°07'.

Type: Cargo ship. MMSI: 366163000.

Date/timePositionNaut miles runAvg speedWind from/ knotsBaromVisibWave heightAir tempDewpointWater temp
2016-Oct-01 04:24N 18°26' W 066°07'0 0.0
2016-Oct-01 03:30N 18°26' W 066°07'0 0.0
2016-Oct-01 00:30N 18°26' W 066°07'0 0.0
2016-Sep-30 22:30N 18°26' W 066°07'0 0.0
2016-Sep-30 20:30N 18°26' W 066°07'0 0.0
2016-Sep-30 17:24N 18°26' W 066°07'0 0.0
2016-Sep-30 16:30N 18°26' W 066°07'0 0.1
2016-Sep-30 14:34N 18°26' W 066°06'9 9.5
2016-Sep-30 13:34N 18°34' W 066°12'  
2016-Sep-21 23:33N 29°58' W 090°17'9 9.0
2016-Sep-21 22:33N 29°55' W 090°07'6 0.4
2016-Sep-21 09:29N 29°57' W 090°01'0 0.0
2016-Sep-21 08:32N 29°57' W 090°01'  
Track history (hours):
 
Tides and Currents Weather Stations Pressure Air Temp Water Temp Dewpoint Dewpoint Depression Visibility Wind Speed Wind Dir Waves Ship Positions

Texas Enterprise

Owner: U.S. United Ocean Services, LLC, Tampa, FL. More information available from US FCC via Universal Licensing System and Coast Guard Vessel Documentation Center.

Last reported at 2016-Oct-01 04:24 UTC. Time now 2016-Oct-01 08:46 UTC.
Position N 18°26' W 066°07'.

Type: Cargo ship. MMSI: 366163000.

Date/timePositionNaut miles runAvg speedWind from/ knotsBaromVisibWave heightAir tempDewpointWater temp
2016-Oct-01 04:24N 18°26' W 066°07'0 0.0
2016-Oct-01 03:30N 18°26' W 066°07'0 0.0
2016-Oct-01 00:30N 18°26' W 066°07'0 0.0
2016-Sep-30 22:30N 18°26' W 066°07'0 0.0
2016-Sep-30 20:30N 18°26' W 066°07'0 0.0
2016-Sep-30 17:24N 18°26' W 066°07'0 0.0
2016-Sep-30 16:30N 18°26' W 066°07'0 0.1
2016-Sep-30 14:34N 18°26' W 066°06'9 9.5
2016-Sep-30 13:34N 18°34' W 066°12'  
2016-Sep-21 23:33N 29°58' W 090°17'9 9.0
2016-Sep-21 22:33N 29°55' W 090°07'6 0.4
2016-Sep-21 09:29N 29°57' W 090°01'0 0.0
2016-Sep-21 08:32N 29°57' W 090°01'  

Dump ship's entire track history